sensor_id;sensor_type;location;lat;lon;timestamp;temperature;humidity
22771;DHT22;11552;50.786;4.332;2022-11-09T00:01:23;15.10;99.90
22771;DHT22;11552;50.786;4.332;2022-11-09T00:04:16;15.10;99.90
22771;DHT22;11552;50.786;4.332;2022-11-09T00:06:41;15.10;99.90
22771;DHT22;11552;50.786;4.332;2022-11-09T00:09:07;15.10;99.90
22771;DHT22;11552;50.786;4.332;2022-11-09T00:12:23;15.10;99.90
22771;DHT22;11552;50.786;4.332;2022-11-09T00:14:48;15.00;99.90
22771;DHT22;11552;50.786;4.332;2022-11-09T00:18:55;15.00;99.90
22771;DHT22;11552;50.786;4.332;2022-11-09T00:21:22;14.90;99.90
22771;DHT22;11552;50.786;4.332;2022-11-09T00:23:49;14.90;99.90
22771;DHT22;11552;50.786;4.332;2022-11-09T00:26:16;14.90;99.90
22771;DHT22;11552;50.786;4.332;2022-11-09T00:28:42;14.90;99.90
22771;DHT22;11552;50.786;4.332;2022-11-09T00:31:14;15.00;99.90
22771;DHT22;11552;50.786;4.332;2022-11-09T00:33:40;14.90;99.90
22771;DHT22;11552;50.786;4.332;2022-11-09T00:36:11;14.80;99.90
22771;DHT22;11552;50.786;4.332;2022-11-09T00:38:37;14.70;99.90
22771;DHT22;11552;50.786;4.332;2022-11-09T00:41:09;14.60;99.90
22771;DHT22;11552;50.786;4.332;2022-11-09T00:44:46;14.60;99.90
22771;DHT22;11552;50.786;4.332;2022-11-09T00:47:12;14.60;99.90
22771;DHT22;11552;50.786;4.332;2022-11-09T00:51:24;14.50;99.90
22771;DHT22;11552;50.786;4.332;2022-11-09T00:53:50;14.40;99.90
22771;DHT22;11552;50.786;4.332;2022-11-09T00:58:31;14.40;99.90
22771;DHT22;11552;50.786;4.332;2022-11-09T01:00:59;14.30;99.90
22771;DHT22;11552;50.786;4.332;2022-11-09T01:03:25;14.30;99.90
22771;DHT22;11552;50.786;4.332;2022-11-09T01:05:52;14.20;99.90
22771;DHT22;11552;50.786;4.332;2022-11-09T01:08:18;14.20;99.90
22771;DHT22;11552;50.786;4.332;2022-11-09T01:10:46;14.20;99.90
22771;DHT22;11552;50.786;4.332;2022-11-09T01:13:13;14.20;99.90
22771;DHT22;11552;50.786;4.332;2022-11-09T01:15:41;14.20;99.90
22771;DHT22;11552;50.786;4.332;2022-11-09T01:18:07;14.20;99.90
22771;DHT22;11552;50.786;4.332;2022-11-09T01:20:33;14.20;99.90
22771;DHT22;11552;50.786;4.332;2022-11-09T01:22:58;14.20;99.90
22771;DHT22;11552;50.786;4.332;2022-11-09T01:25:24;14.20;99.90
22771;DHT22;11552;50.786;4.332;2022-11-09T01:27:49;14.10;99.90
22771;DHT22;11552;50.786;4.332;2022-11-09T01:30:15;14.10;99.90
22771;DHT22;11552;50.786;4.332;2022-11-09T01:32:41;14.20;99.90
22771;DHT22;11552;50.786;4.332;2022-11-09T01:37:02;14.20;99.90
22771;DHT22;11552;50.786;4.332;2022-11-09T01:39:27;14.20;99.90
22771;DHT22;11552;50.786;4.332;2022-11-09T01:41:53;14.30;99.90
22771;DHT22;11552;50.786;4.332;2022-11-09T01:44:19;14.40;99.90
22771;DHT22;11552;50.786;4.332;2022-11-09T01:46:54;14.40;99.90
22771;DHT22;11552;50.786;4.332;2022-11-09T01:52:12;14.40;99.90
22771;DHT22;11552;50.786;4.332;2022-11-09T01:54:42;14.40;99.90
22771;DHT22;11552;50.786;4.332;2022-11-09T01:57:17;14.40;99.90
22771;DHT22;11552;50.786;4.332;2022-11-09T02:00:00;14.50;99.90
22771;DHT22;11552;50.786;4.332;2022-11-09T02:02:26;14.40;99.90
22771;DHT22;11552;50.786;4.332;2022-11-09T02:05:00;14.40;99.90
22771;DHT22;11552;50.786;4.332;2022-11-09T02:07:27;14.50;99.90
22771;DHT22;11552;50.786;4.332;2022-11-09T02:12:32;14.40;99.90
22771;DHT22;11552;50.786;4.332;2022-11-09T02:16:57;14.40;99.90
22771;DHT22;11552;50.786;4.332;2022-11-09T02:19:23;14.40;99.90
22771;DHT22;11552;50.786;4.332;2022-11-09T02:21:49;14.40;99.90
22771;DHT22;11552;50.786;4.332;2022-11-09T02:24:15;14.30;99.90
22771;DHT22;11552;50.786;4.332;2022-11-09T02:26:51;14.20;99.90
22771;DHT22;11552;50.786;4.332;2022-11-09T02:29:38;14.20;99.90
22771;DHT22;11552;50.786;4.332;2022-11-09T02:33:53;14.20;99.90
22771;DHT22;11552;50.786;4.332;2022-11-09T02:38:26;14.20;99.90
22771;DHT22;11552;50.786;4.332;2022-11-09T02:40:52;14.20;99.90
22771;DHT22;11552;50.786;4.332;2022-11-09T02:43:18;14.10;99.90
22771;DHT22;11552;50.786;4.332;2022-11-09T02:45:44;14.10;99.90
22771;DHT22;11552;50.786;4.332;2022-11-09T02:48:09;14.00;99.90
22771;DHT22;11552;50.786;4.332;2022-11-09T02:50:35;13.90;99.90
22771;DHT22;11552;50.786;4.332;2022-11-09T02:53:01;13.90;99.90
22771;DHT22;11552;50.786;4.332;2022-11-09T02:55:27;13.80;99.90
22771;DHT22;11552;50.786;4.332;2022-11-09T02:57:53;13.80;99.90
22771;DHT22;11552;50.786;4.332;2022-11-09T03:00:18;13.70;99.90
22771;DHT22;11552;50.786;4.332;2022-11-09T03:02:44;13.90;99.90
22771;DHT22;11552;50.786;4.332;2022-11-09T03:05:10;13.80;99.90
22771;DHT22;11552;50.786;4.332;2022-11-09T03:07:35;13.80;99.90
22771;DHT22;11552;50.786;4.332;2022-11-09T03:10:01;13.70;99.90
22771;DHT22;11552;50.786;4.332;2022-11-09T03:12:27;13.70;99.90
22771;DHT22;11552;50.786;4.332;2022-11-09T03:15:03;13.70;99.90
22771;DHT22;11552;50.786;4.332;2022-11-09T03:17:31;13.70;99.90
22771;DHT22;11552;50.786;4.332;2022-11-09T03:19:56;13.60;99.90
22771;DHT22;11552;50.786;4.332;2022-11-09T03:22:22;13.50;99.90
22771;DHT22;11552;50.786;4.332;2022-11-09T03:24:48;13.50;99.90
22771;DHT22;11552;50.786;4.332;2022-11-09T03:27:14;13.50;99.90
22771;DHT22;11552;50.786;4.332;2022-11-09T03:29:39;13.50;99.90
22771;DHT22;11552;50.786;4.332;2022-11-09T03:32:05;13.50;99.90
22771;DHT22;11552;50.786;4.332;2022-11-09T03:34:31;13.60;99.90
22771;DHT22;11552;50.786;4.332;2022-11-09T03:36:57;13.60;99.90
22771;DHT22;11552;50.786;4.332;2022-11-09T03:39:22;13.60;99.90
22771;DHT22;11552;50.786;4.332;2022-11-09T03:41:48;13.60;99.90
22771;DHT22;11552;50.786;4.332;2022-11-09T03:44:14;13.70;99.90
22771;DHT22;11552;50.786;4.332;2022-11-09T03:46:39;13.60;99.90
22771;DHT22;11552;50.786;4.332;2022-11-09T03:49:05;13.60;99.90
22771;DHT22;11552;50.786;4.332;2022-11-09T03:51:31;13.50;99.90
22771;DHT22;11552;50.786;4.332;2022-11-09T03:53:56;13.40;99.90
22771;DHT22;11552;50.786;4.332;2022-11-09T03:56:22;13.40;99.90
22771;DHT22;11552;50.786;4.332;2022-11-09T03:58:47;13.30;99.90
22771;DHT22;11552;50.786;4.332;2022-11-09T04:01:13;13.30;99.90
22771;DHT22;11552;50.786;4.332;2022-11-09T04:03:39;13.40;99.90
22771;DHT22;11552;50.786;4.332;2022-11-09T04:06:05;13.40;99.90
22771;DHT22;11552;50.786;4.332;2022-11-09T04:08:30;13.30;99.90
22771;DHT22;11552;50.786;4.332;2022-11-09T04:10:56;13.30;99.90
22771;DHT22;11552;50.786;4.332;2022-11-09T04:13:22;13.30;99.90
22771;DHT22;11552;50.786;4.332;2022-11-09T04:15:48;13.20;99.90
22771;DHT22;11552;50.786;4.332;2022-11-09T04:18:15;13.20;99.90
22771;DHT22;11552;50.786;4.332;2022-11-09T04:20:41;13.20;99.90
22771;DHT22;11552;50.786;4.332;2022-11-09T04:23:11;13.20;99.90
22771;DHT22;11552;50.786;4.332;2022-11-09T04:25:50;13.10;99.90
22771;DHT22;11552;50.786;4.332;2022-11-09T04:28:16;13.20;99.90
22771;DHT22;11552;50.786;4.332;2022-11-09T04:33:17;13.20;99.90
22771;DHT22;11552;50.786;4.332;2022-11-09T04:35:43;13.30;99.90
22771;DHT22;11552;50.786;4.332;2022-11-09T04:38:11;13.30;99.90
22771;DHT22;11552;50.786;4.332;2022-11-09T04:40:37;13.30;99.90
22771;DHT22;11552;50.786;4.332;2022-11-09T04:43:04;13.20;99.90
22771;DHT22;11552;50.786;4.332;2022-11-09T04:45:32;13.20;99.90
22771;DHT22;11552;50.786;4.332;2022-11-09T04:48:03;13.10;99.90
22771;DHT22;11552;50.786;4.332;2022-11-09T04:50:29;13.10;99.90
22771;DHT22;11552;50.786;4.332;2022-11-09T04:53:06;13.10;99.90
22771;DHT22;11552;50.786;4.332;2022-11-09T04:55:32;13.10;99.90
22771;DHT22;11552;50.786;4.332;2022-11-09T04:57:57;13.00;99.90
22771;DHT22;11552;50.786;4.332;2022-11-09T05:00:23;13.00;99.90
22771;DHT22;11552;50.786;4.332;2022-11-09T05:02:49;13.00;99.90
22771;DHT22;11552;50.786;4.332;2022-11-09T05:05:14;12.90;99.90
22771;DHT22;11552;50.786;4.332;2022-11-09T05:07:40;13.00;99.90
22771;DHT22;11552;50.786;4.332;2022-11-09T05:10:06;12.90;99.90
22771;DHT22;11552;50.786;4.332;2022-11-09T05:12:31;12.90;99.90
22771;DHT22;11552;50.786;4.332;2022-11-09T05:14:57;12.90;99.90
22771;DHT22;11552;50.786;4.332;2022-11-09T05:17:23;12.90;99.90
22771;DHT22;11552;50.786;4.332;2022-11-09T05:19:48;12.80;99.90
22771;DHT22;11552;50.786;4.332;2022-11-09T05:22:14;12.90;99.90
22771;DHT22;11552;50.786;4.332;2022-11-09T05:24:58;12.80;99.90
22771;DHT22;11552;50.786;4.332;2022-11-09T05:27:24;12.70;99.90
22771;DHT22;11552;50.786;4.332;2022-11-09T05:29:50;12.80;99.90
22771;DHT22;11552;50.786;4.332;2022-11-09T05:32:15;12.70;99.90
22771;DHT22;11552;50.786;4.332;2022-11-09T05:34:41;12.80;99.90
22771;DHT22;11552;50.786;4.332;2022-11-09T05:37:06;12.70;99.90
22771;DHT22;11552;50.786;4.332;2022-11-09T05:39:32;12.80;99.90
22771;DHT22;11552;50.786;4.332;2022-11-09T05:41:57;12.80;99.90
22771;DHT22;11552;50.786;4.332;2022-11-09T05:44:23;12.80;99.90
22771;DHT22;11552;50.786;4.332;2022-11-09T05:46:49;12.80;99.90
22771;DHT22;11552;50.786;4.332;2022-11-09T05:49:14;12.70;99.90
22771;DHT22;11552;50.786;4.332;2022-11-09T05:51:40;12.80;99.90
22771;DHT22;11552;50.786;4.332;2022-11-09T05:54:05;12.80;99.90
22771;DHT22;11552;50.786;4.332;2022-11-09T05:56:31;12.80;99.90
22771;DHT22;11552;50.786;4.332;2022-11-09T05:58:56;12.70;99.90
22771;DHT22;11552;50.786;4.332;2022-11-09T06:03:39;12.70;99.90
22771;DHT22;11552;50.786;4.332;2022-11-09T06:06:07;12.70;99.90
22771;DHT22;11552;50.786;4.332;2022-11-09T06:08:33;12.70;99.90
22771;DHT22;11552;50.786;4.332;2022-11-09T06:11:01;12.60;99.90
22771;DHT22;11552;50.786;4.332;2022-11-09T06:13:28;12.60;99.90
22771;DHT22;11552;50.786;4.332;2022-11-09T06:15:54;12.70;99.90
22771;DHT22;11552;50.786;4.332;2022-11-09T06:18:21;12.70;99.90
22771;DHT22;11552;50.786;4.332;2022-11-09T06:20:50;12.70;99.90
22771;DHT22;11552;50.786;4.332;2022-11-09T06:23:16;12.70;99.90
22771;DHT22;11552;50.786;4.332;2022-11-09T06:25:42;12.70;99.90
22771;DHT22;11552;50.786;4.332;2022-11-09T06:28:07;12.60;99.90
22771;DHT22;11552;50.786;4.332;2022-11-09T06:30:33;12.60;99.90
22771;DHT22;11552;50.786;4.332;2022-11-09T06:33:00;12.50;99.90
22771;DHT22;11552;50.786;4.332;2022-11-09T06:35:26;12.50;99.90
22771;DHT22;11552;50.786;4.332;2022-11-09T06:37:58;12.50;99.90
22771;DHT22;11552;50.786;4.332;2022-11-09T06:40:24;12.50;99.90
22771;DHT22;11552;50.786;4.332;2022-11-09T06:42:51;12.50;99.90
22771;DHT22;11552;50.786;4.332;2022-11-09T06:45:17;12.40;99.90
22771;DHT22;11552;50.786;4.332;2022-11-09T06:47:42;12.50;99.90
22771;DHT22;11552;50.786;4.332;2022-11-09T06:50:08;12.50;99.90
22771;DHT22;11552;50.786;4.332;2022-11-09T06:52:35;12.40;99.90
22771;DHT22;11552;50.786;4.332;2022-11-09T06:55:01;12.40;99.90
22771;DHT22;11552;50.786;4.332;2022-11-09T06:57:29;12.40;99.90
22771;DHT22;11552;50.786;4.332;2022-11-09T06:59:55;12.40;99.90
22771;DHT22;11552;50.786;4.332;2022-11-09T07:02:21;12.40;99.90
22771;DHT22;11552;50.786;4.332;2022-11-09T07:04:50;12.40;99.90
22771;DHT22;11552;50.786;4.332;2022-11-09T07:07:16;12.50;99.90
22771;DHT22;11552;50.786;4.332;2022-11-09T07:09:41;12.50;99.90
22771;DHT22;11552;50.786;4.332;2022-11-09T07:12:08;12.50;99.90
22771;DHT22;11552;50.786;4.332;2022-11-09T07:14:33;12.50;99.90
22771;DHT22;11552;50.786;4.332;2022-11-09T07:16:59;12.50;99.90
22771;DHT22;11552;50.786;4.332;2022-11-09T07:19:26;12.60;99.90
22771;DHT22;11552;50.786;4.332;2022-11-09T07:21:52;12.50;99.90
22771;DHT22;11552;50.786;4.332;2022-11-09T07:24:18;12.50;99.90
22771;DHT22;11552;50.786;4.332;2022-11-09T07:27:28;12.60;99.90
22771;DHT22;11552;50.786;4.332;2022-11-09T07:29:54;12.60;99.90
22771;DHT22;11552;50.786;4.332;2022-11-09T07:32:19;12.60;99.90
22771;DHT22;11552;50.786;4.332;2022-11-09T07:34:45;12.60;99.90
22771;DHT22;11552;50.786;4.332;2022-11-09T07:37:11;12.60;99.90
22771;DHT22;11552;50.786;4.332;2022-11-09T07:41:53;12.70;99.90
22771;DHT22;11552;50.786;4.332;2022-11-09T07:44:19;12.70;99.90
22771;DHT22;11552;50.786;4.332;2022-11-09T07:46:46;12.70;99.90
22771;DHT22;11552;50.786;4.332;2022-11-09T07:49:13;12.70;99.90
22771;DHT22;11552;50.786;4.332;2022-11-09T07:51:39;12.80;99.90
22771;DHT22;11552;50.786;4.332;2022-11-09T07:54:05;12.80;99.90
22771;DHT22;11552;50.786;4.332;2022-11-09T07:56:31;12.80;99.90
22771;DHT22;11552;50.786;4.332;2022-11-09T07:58:57;12.80;99.90
22771;DHT22;11552;50.786;4.332;2022-11-09T08:01:23;12.80;99.90
22771;DHT22;11552;50.786;4.332;2022-11-09T08:03:48;12.80;99.90
22771;DHT22;11552;50.786;4.332;2022-11-09T08:06:14;12.80;99.90
22771;DHT22;11552;50.786;4.332;2022-11-09T08:08:40;12.90;99.90
22771;DHT22;11552;50.786;4.332;2022-11-09T08:11:06;13.00;99.90
22771;DHT22;11552;50.786;4.332;2022-11-09T08:13:31;13.00;99.90
22771;DHT22;11552;50.786;4.332;2022-11-09T08:16:00;13.00;99.90
22771;DHT22;11552;50.786;4.332;2022-11-09T08:18:27;13.00;99.90
22771;DHT22;11552;50.786;4.332;2022-11-09T08:20:53;13.10;99.90
22771;DHT22;11552;50.786;4.332;2022-11-09T08:23:19;13.20;99.90
22771;DHT22;11552;50.786;4.332;2022-11-09T08:25:46;13.20;99.90
22771;DHT22;11552;50.786;4.332;2022-11-09T08:28:12;13.20;99.90
22771;DHT22;11552;50.786;4.332;2022-11-09T08:30:39;13.20;99.90
22771;DHT22;11552;50.786;4.332;2022-11-09T08:33:05;13.20;99.90
22771;DHT22;11552;50.786;4.332;2022-11-09T08:35:30;13.30;99.90
22771;DHT22;11552;50.786;4.332;2022-11-09T08:38:00;13.40;99.90
22771;DHT22;11552;50.786;4.332;2022-11-09T08:40:27;13.60;99.90
22771;DHT22;11552;50.786;4.332;2022-11-09T08:42:53;14.20;99.90
22771;DHT22;11552;50.786;4.332;2022-11-09T08:45:18;15.10;99.90
22771;DHT22;11552;50.786;4.332;2022-11-09T08:47:44;15.80;99.90
22771;DHT22;11552;50.786;4.332;2022-11-09T08:50:12;16.30;99.90
22771;DHT22;11552;50.786;4.332;2022-11-09T08:52:39;16.30;99.90
22771;DHT22;11552;50.786;4.332;2022-11-09T08:55:05;16.50;99.90
22771;DHT22;11552;50.786;4.332;2022-11-09T08:57:31;16.80;99.90
22771;DHT22;11552;50.786;4.332;2022-11-09T08:59:57;16.80;99.90
22771;DHT22;11552;50.786;4.332;2022-11-09T09:02:23;16.70;99.90
22771;DHT22;11552;50.786;4.332;2022-11-09T09:04:48;16.10;99.90
22771;DHT22;11552;50.786;4.332;2022-11-09T09:07:45;15.80;99.90
22771;DHT22;11552;50.786;4.332;2022-11-09T09:10:12;15.60;99.90
22771;DHT22;11552;50.786;4.332;2022-11-09T09:12:38;15.90;99.90
22771;DHT22;11552;50.786;4.332;2022-11-09T09:15:38;15.60;99.90
22771;DHT22;11552;50.786;4.332;2022-11-09T09:18:04;15.70;99.90
22771;DHT22;11552;50.786;4.332;2022-11-09T09:20:30;15.80;99.90
22771;DHT22;11552;50.786;4.332;2022-11-09T09:22:57;15.80;99.90
22771;DHT22;11552;50.786;4.332;2022-11-09T09:25:24;15.70;99.90
22771;DHT22;11552;50.786;4.332;2022-11-09T09:27:50;15.80;99.90
22771;DHT22;11552;50.786;4.332;2022-11-09T09:30:16;16.10;99.90
22771;DHT22;11552;50.786;4.332;2022-11-09T09:32:41;15.80;99.90
22771;DHT22;11552;50.786;4.332;2022-11-09T09:35:07;15.50;99.90
22771;DHT22;11552;50.786;4.332;2022-11-09T09:37:33;15.60;99.90
22771;DHT22;11552;50.786;4.332;2022-11-09T09:39:59;15.70;99.90
22771;DHT22;11552;50.786;4.332;2022-11-09T09:42:35;16.00;99.90
22771;DHT22;11552;50.786;4.332;2022-11-09T09:45:15;16.20;99.90
22771;DHT22;11552;50.786;4.332;2022-11-09T09:47:48;16.50;99.90
22771;DHT22;11552;50.786;4.332;2022-11-09T09:50:28;16.60;99.90
22771;DHT22;11552;50.786;4.332;2022-11-09T09:54:22;17.00;99.90
22771;DHT22;11552;50.786;4.332;2022-11-09T09:56:51;16.60;99.90
22771;DHT22;11552;50.786;4.332;2022-11-09T10:01:53;16.00;99.90
22771;DHT22;11552;50.786;4.332;2022-11-09T10:04:31;16.10;99.90
22771;DHT22;11552;50.786;4.332;2022-11-09T10:07:21;15.80;99.90
22771;DHT22;11552;50.786;4.332;2022-11-09T10:18:13;15.40;99.90
22771;DHT22;11552;50.786;4.332;2022-11-09T10:25:44;15.00;99.90
22771;DHT22;11552;50.786;4.332;2022-11-09T10:28:14;15.10;99.90
22771;DHT22;11552;50.786;4.332;2022-11-09T10:30:41;15.00;99.90
22771;DHT22;11552;50.786;4.332;2022-11-09T10:35:52;14.80;99.90
22771;DHT22;11552;50.786;4.332;2022-11-09T10:38:20;14.90;99.90
22771;DHT22;11552;50.786;4.332;2022-11-09T10:42:43;15.10;99.90
22771;DHT22;11552;50.786;4.332;2022-11-09T10:47:49;15.10;99.90
22771;DHT22;11552;50.786;4.332;2022-11-09T10:52:51;14.80;99.90
22771;DHT22;11552;50.786;4.332;2022-11-09T10:55:26;14.60;99.90
22771;DHT22;11552;50.786;4.332;2022-11-09T11:03:24;14.70;99.90
22771;DHT22;11552;50.786;4.332;2022-11-09T11:08:36;15.10;99.90
22771;DHT22;11552;50.786;4.332;2022-11-09T11:11:26;15.10;99.90
22771;DHT22;11552;50.786;4.332;2022-11-09T11:16:41;15.10;99.90
22771;DHT22;11552;50.786;4.332;2022-11-09T11:22:14;15.20;99.90
22771;DHT22;11552;50.786;4.332;2022-11-09T11:27:36;14.90;99.90
22771;DHT22;11552;50.786;4.332;2022-11-09T11:30:27;14.70;99.90
22771;DHT22;11552;50.786;4.332;2022-11-09T11:32:56;14.60;99.90
22771;DHT22;11552;50.786;4.332;2022-11-09T11:35:47;14.70;99.90
22771;DHT22;11552;50.786;4.332;2022-11-09T11:39:11;14.70;99.90
22771;DHT22;11552;50.786;4.332;2022-11-09T11:47:35;15.00;99.90
22771;DHT22;11552;50.786;4.332;2022-11-09T12:00:57;15.00;99.90
22771;DHT22;11552;50.786;4.332;2022-11-09T12:09:08;15.10;99.90
22771;DHT22;11552;50.786;4.332;2022-11-09T12:11:47;14.90;99.90
22771;DHT22;11552;50.786;4.332;2022-11-09T12:19:57;14.70;99.90
22771;DHT22;11552;50.786;4.332;2022-11-09T12:31:00;14.10;99.90
22771;DHT22;11552;50.786;4.332;2022-11-09T12:37:06;13.70;99.90
22771;DHT22;11552;50.786;4.332;2022-11-09T12:39:43;13.80;99.90
22771;DHT22;11552;50.786;4.332;2022-11-09T12:42:30;13.70;99.90
22771;DHT22;11552;50.786;4.332;2022-11-09T12:47:11;13.80;99.90
22771;DHT22;11552;50.786;4.332;2022-11-09T12:49:42;14.00;99.90
22771;DHT22;11552;50.786;4.332;2022-11-09T12:52:14;14.10;99.90
22771;DHT22;11552;50.786;4.332;2022-11-09T12:54:43;14.10;99.90
22771;DHT22;11552;50.786;4.332;2022-11-09T12:57:21;14.10;99.90
22771;DHT22;11552;50.786;4.332;2022-11-09T12:59:49;14.10;99.90
22771;DHT22;11552;50.786;4.332;2022-11-09T13:02:32;14.10;99.90
22771;DHT22;11552;50.786;4.332;2022-11-09T13:05:03;14.30;99.90
22771;DHT22;11552;50.786;4.332;2022-11-09T13:09:56;14.50;99.90
22771;DHT22;11552;50.786;4.332;2022-11-09T13:15:20;14.60;99.90
22771;DHT22;11552;50.786;4.332;2022-11-09T13:27:02;14.90;99.90
22771;DHT22;11552;50.786;4.332;2022-11-09T13:33:32;14.90;99.90
22771;DHT22;11552;50.786;4.332;2022-11-09T13:36:13;14.90;99.90
22771;DHT22;11552;50.786;4.332;2022-11-09T13:38:39;14.90;99.90
22771;DHT22;11552;50.786;4.332;2022-11-09T13:48:48;14.90;99.90
22771;DHT22;11552;50.786;4.332;2022-11-09T13:54:02;15.00;99.90
22771;DHT22;11552;50.786;4.332;2022-11-09T13:56:38;14.80;99.90
22771;DHT22;11552;50.786;4.332;2022-11-09T13:59:27;14.80;99.90
22771;DHT22;11552;50.786;4.332;2022-11-09T14:02:00;14.80;99.90
22771;DHT22;11552;50.786;4.332;2022-11-09T14:04:28;14.80;99.90
22771;DHT22;11552;50.786;4.332;2022-11-09T14:07:06;14.70;99.90
22771;DHT22;11552;50.786;4.332;2022-11-09T14:10:42;14.50;99.90
22771;DHT22;11552;50.786;4.332;2022-11-09T14:16:56;14.20;99.90
22771;DHT22;11552;50.786;4.332;2022-11-09T14:22:16;13.90;99.90
22771;DHT22;11552;50.786;4.332;2022-11-09T14:26:22;13.80;99.90
22771;DHT22;11552;50.786;4.332;2022-11-09T14:28:48;13.80;99.90
22771;DHT22;11552;50.786;4.332;2022-11-09T14:31:30;13.70;99.90
22771;DHT22;11552;50.786;4.332;2022-11-09T14:34:00;13.50;99.90
22771;DHT22;11552;50.786;4.332;2022-11-09T14:36:31;13.60;99.90
22771;DHT22;11552;50.786;4.332;2022-11-09T14:39:00;13.70;99.90
22771;DHT22;11552;50.786;4.332;2022-11-09T14:41:27;13.80;99.90
22771;DHT22;11552;50.786;4.332;2022-11-09T14:43:55;13.90;99.90
22771;DHT22;11552;50.786;4.332;2022-11-09T14:46:25;13.90;99.90
22771;DHT22;11552;50.786;4.332;2022-11-09T14:49:00;14.00;99.90
22771;DHT22;11552;50.786;4.332;2022-11-09T14:51:33;14.30;99.90
22771;DHT22;11552;50.786;4.332;2022-11-09T14:54:00;14.40;99.90
22771;DHT22;11552;50.786;4.332;2022-11-09T14:56:28;14.20;99.90
22771;DHT22;11552;50.786;4.332;2022-11-09T14:58:55;14.30;99.90
22771;DHT22;11552;50.786;4.332;2022-11-09T15:01:24;14.00;99.90
22771;DHT22;11552;50.786;4.332;2022-11-09T15:06:50;13.90;99.90
22771;DHT22;11552;50.786;4.332;2022-11-09T15:09:19;13.80;99.90
22771;DHT22;11552;50.786;4.332;2022-11-09T15:11:46;13.70;99.90
22771;DHT22;11552;50.786;4.332;2022-11-09T15:14:35;13.80;99.90
22771;DHT22;11552;50.786;4.332;2022-11-09T15:17:27;13.80;99.90
22771;DHT22;11552;50.786;4.332;2022-11-09T15:19:59;13.90;99.90
22771;DHT22;11552;50.786;4.332;2022-11-09T15:22:47;13.80;99.90
22771;DHT22;11552;50.786;4.332;2022-11-09T15:30:43;13.50;99.90
22771;DHT22;11552;50.786;4.332;2022-11-09T15:36:02;13.50;99.90
22771;DHT22;11552;50.786;4.332;2022-11-09T15:42:31;13.30;99.90
22771;DHT22;11552;50.786;4.332;2022-11-09T15:44:58;13.20;99.90
22771;DHT22;11552;50.786;4.332;2022-11-09T15:47:31;13.10;99.90
22771;DHT22;11552;50.786;4.332;2022-11-09T15:49:59;13.00;99.90
22771;DHT22;11552;50.786;4.332;2022-11-09T15:52:25;13.00;99.90
22771;DHT22;11552;50.786;4.332;2022-11-09T15:54:51;12.90;99.90
22771;DHT22;11552;50.786;4.332;2022-11-09T15:57:18;12.80;99.90
22771;DHT22;11552;50.786;4.332;2022-11-09T15:59:45;12.80;99.90
22771;DHT22;11552;50.786;4.332;2022-11-09T16:02:12;12.90;99.90
22771;DHT22;11552;50.786;4.332;2022-11-09T16:04:38;12.80;99.90
22771;DHT22;11552;50.786;4.332;2022-11-09T16:07:04;12.70;99.90
22771;DHT22;11552;50.786;4.332;2022-11-09T16:09:30;12.60;99.90
22771;DHT22;11552;50.786;4.332;2022-11-09T16:11:56;12.60;99.90
22771;DHT22;11552;50.786;4.332;2022-11-09T16:14:22;12.60;99.90
22771;DHT22;11552;50.786;4.332;2022-11-09T16:16:48;12.50;99.90
22771;DHT22;11552;50.786;4.332;2022-11-09T16:19:14;12.50;99.90
22771;DHT22;11552;50.786;4.332;2022-11-09T16:21:41;12.60;99.90
22771;DHT22;11552;50.786;4.332;2022-11-09T16:24:07;12.50;99.90
22771;DHT22;11552;50.786;4.332;2022-11-09T16:26:33;12.50;99.90
22771;DHT22;11552;50.786;4.332;2022-11-09T16:28:59;12.50;99.90
22771;DHT22;11552;50.786;4.332;2022-11-09T16:31:24;12.60;99.90
22771;DHT22;11552;50.786;4.332;2022-11-09T16:33:50;12.50;99.90
22771;DHT22;11552;50.786;4.332;2022-11-09T16:36:22;12.50;99.90
22771;DHT22;11552;50.786;4.332;2022-11-09T16:38:53;12.50;99.90
22771;DHT22;11552;50.786;4.332;2022-11-09T16:41:19;12.60;99.90
22771;DHT22;11552;50.786;4.332;2022-11-09T16:43:50;12.60;99.90
22771;DHT22;11552;50.786;4.332;2022-11-09T16:46:25;12.50;99.90
22771;DHT22;11552;50.786;4.332;2022-11-09T16:48:52;12.50;99.90
22771;DHT22;11552;50.786;4.332;2022-11-09T16:51:19;12.40;99.90
22771;DHT22;11552;50.786;4.332;2022-11-09T16:53:45;12.40;99.90
22771;DHT22;11552;50.786;4.332;2022-11-09T16:56:11;12.30;99.90
22771;DHT22;11552;50.786;4.332;2022-11-09T16:58:36;12.30;99.90
22771;DHT22;11552;50.786;4.332;2022-11-09T17:01:02;12.30;99.90
22771;DHT22;11552;50.786;4.332;2022-11-09T17:03:28;12.30;99.90
22771;DHT22;11552;50.786;4.332;2022-11-09T17:05:59;12.30;99.90
22771;DHT22;11552;50.786;4.332;2022-11-09T17:08:25;12.30;99.90
22771;DHT22;11552;50.786;4.332;2022-11-09T17:10:51;12.30;99.90
22771;DHT22;11552;50.786;4.332;2022-11-09T17:13:16;12.30;99.90
22771;DHT22;11552;50.786;4.332;2022-11-09T17:15:44;12.20;99.90
22771;DHT22;11552;50.786;4.332;2022-11-09T17:18:10;12.20;99.90
22771;DHT22;11552;50.786;4.332;2022-11-09T17:20:48;12.30;99.90
22771;DHT22;11552;50.786;4.332;2022-11-09T17:23:17;12.20;99.90
22771;DHT22;11552;50.786;4.332;2022-11-09T17:25:56;12.20;99.90
22771;DHT22;11552;50.786;4.332;2022-11-09T17:28:22;12.20;99.90
22771;DHT22;11552;50.786;4.332;2022-11-09T17:30:48;12.20;99.90
22771;DHT22;11552;50.786;4.332;2022-11-09T17:33:14;12.10;99.90
22771;DHT22;11552;50.786;4.332;2022-11-09T17:35:40;12.20;99.90
22771;DHT22;11552;50.786;4.332;2022-11-09T17:38:05;12.20;99.90
22771;DHT22;11552;50.786;4.332;2022-11-09T17:40:31;12.10;99.90
22771;DHT22;11552;50.786;4.332;2022-11-09T17:43:16;12.00;99.90
22771;DHT22;11552;50.786;4.332;2022-11-09T17:45:42;12.00;99.90
22771;DHT22;11552;50.786;4.332;2022-11-09T17:48:07;12.00;99.90
22771;DHT22;11552;50.786;4.332;2022-11-09T17:50:33;12.00;99.90
22771;DHT22;11552;50.786;4.332;2022-11-09T17:52:59;12.10;99.90
22771;DHT22;11552;50.786;4.332;2022-11-09T17:55:24;12.20;99.90
22771;DHT22;11552;50.786;4.332;2022-11-09T17:57:50;12.30;99.90
22771;DHT22;11552;50.786;4.332;2022-11-09T18:00:16;12.20;99.90
22771;DHT22;11552;50.786;4.332;2022-11-09T18:03:58;12.30;99.90
22771;DHT22;11552;50.786;4.332;2022-11-09T18:06:24;12.40;99.90
22771;DHT22;11552;50.786;4.332;2022-11-09T18:08:50;12.50;99.90
22771;DHT22;11552;50.786;4.332;2022-11-09T18:11:16;12.50;99.90
22771;DHT22;11552;50.786;4.332;2022-11-09T18:13:43;12.50;99.90
22771;DHT22;11552;50.786;4.332;2022-11-09T18:16:14;12.40;99.90
22771;DHT22;11552;50.786;4.332;2022-11-09T18:18:40;12.30;99.90
22771;DHT22;11552;50.786;4.332;2022-11-09T18:21:10;12.30;99.90
22771;DHT22;11552;50.786;4.332;2022-11-09T18:23:36;12.30;99.90
22771;DHT22;11552;50.786;4.332;2022-11-09T18:26:04;12.30;99.90
22771;DHT22;11552;50.786;4.332;2022-11-09T18:28:31;12.40;99.90